createdAt,value
2019-02-20T00:03:21.173Z,97226.87
2019-02-20T00:07:24.331Z,97224.56
2019-02-20T00:11:26.227Z,97221.94
2019-02-20T00:15:28.171Z,97228.06
2019-02-20T00:19:30.083Z,97225.13
2019-02-20T00:23:31.999Z,97231.63
2019-02-20T00:27:33.907Z,97231.75
2019-02-20T00:31:35.807Z,97231.03
2019-02-20T00:35:37.729Z,97231.19
2019-02-20T00:39:39.643Z,97228.75
2019-02-20T00:43:43.211Z,97231.16
2019-02-20T00:47:46.761Z,97233.09
2019-02-20T00:51:50.301Z,97227.23
2019-02-20T00:55:52.395Z,97231.42
2019-02-20T00:59:54.303Z,97238.23
2019-02-20T01:03:56.211Z,97243.59
2019-02-20T01:07:58.123Z,97244.70
2019-02-20T01:12:00.025Z,97247.84
2019-02-20T01:16:02.024Z,97245.74
2019-02-20T01:20:05.274Z,97244.45
2019-02-20T01:24:07.201Z,97244.63
2019-02-20T01:28:09.114Z,97244.41
2019-02-20T01:32:11.012Z,97247.30
2019-02-20T01:36:13.911Z,97242.23
2019-02-20T01:40:15.809Z,97241.84
2019-02-20T01:44:17.714Z,97244.25
2019-02-20T01:48:19.634Z,97240.52
2019-02-20T01:52:21.531Z,97239.21
2019-02-20T01:56:24.506Z,97235.13
2019-02-20T02:00:26.425Z,97236.42
2019-02-20T02:04:28.342Z,97228.56
2019-02-20T02:08:31.227Z,97233.92
2019-02-20T02:12:34.135Z,97229.20
2019-02-20T02:16:36.054Z,97229.13
2019-02-20T02:20:39.039Z,97232.55
2019-02-20T02:24:40.976Z,97224.56
2019-02-20T02:28:42.877Z,97226.42
2019-02-20T02:32:44.845Z,97227.69
2019-02-20T02:36:46.764Z,97227.97
2019-02-20T02:40:48.675Z,97225.06
2019-02-20T02:44:50.593Z,97227.66
2019-02-20T02:48:52.506Z,97232.50
2019-02-20T02:52:54.404Z,97231.20
2019-02-20T02:56:56.330Z,97235.88
2019-02-20T03:00:58.319Z,97237.93
2019-02-20T03:05:00.255Z,97251.22
2019-02-20T03:09:02.236Z,97245.83
2019-02-20T03:13:05.863Z,97247.80
2019-02-20T03:17:07.792Z,97246.70
2019-02-20T03:21:09.700Z,97245.20
2019-02-20T03:25:11.613Z,97242.22
2019-02-20T03:29:13.561Z,97238.95
2019-02-20T03:33:15.454Z,97243.05
2019-02-20T03:37:17.453Z,97243.05
2019-02-20T03:41:19.373Z,97243.32
2019-02-20T03:45:21.309Z,97241.31
2019-02-20T03:49:23.208Z,97245.00
2019-02-20T03:53:25.128Z,97244.19
2019-02-20T03:57:27.019Z,97240.92
2019-02-20T04:01:28.941Z,97239.89
2019-02-20T04:05:30.876Z,97248.66
2019-02-20T04:09:32.777Z,97255.14
2019-02-20T04:13:34.705Z,97262.93
2019-02-20T04:17:36.610Z,97267.14
2019-02-20T04:21:38.529Z,97256.44
2019-02-20T04:25:40.443Z,97252.80
2019-02-20T04:29:42.363Z,97258.41
2019-02-20T04:33:45.246Z,97266.20
2019-02-20T04:37:47.147Z,97268.44
2019-02-20T04:41:49.069Z,97269.19
2019-02-20T04:45:50.993Z,97267.27
2019-02-20T04:49:52.909Z,97266.52
2019-02-20T04:53:54.837Z,97265.61
2019-02-20T04:58:20.736Z,97258.45
2019-02-20T05:02:22.635Z,97261.95
2019-02-20T05:06:24.842Z,97258.06
2019-02-20T05:10:26.754Z,97266.52
2019-02-20T05:14:28.673Z,97273.67
2019-02-20T05:18:31.565Z,97269.47
2019-02-20T05:22:33.468Z,97267.39
2019-02-20T05:26:35.406Z,97269.86
2019-02-20T05:30:37.321Z,97276.42
2019-02-20T05:34:39.252Z,97276.03
2019-02-20T05:38:41.170Z,97273.19
2019-02-20T05:42:43.078Z,97283.56
2019-02-20T05:46:45.003Z,97292.25
2019-02-20T05:50:46.931Z,97289.33
2019-02-20T05:54:48.832Z,97296.14
2019-02-20T05:58:50.766Z,97305.41
2019-02-20T06:02:52.676Z,97306.67
2019-02-20T06:06:54.595Z,97305.42
2019-02-20T06:10:56.518Z,97305.97
2019-02-20T06:14:58.442Z,97313.22
2019-02-20T06:19:00.349Z,97312.09
2019-02-20T06:23:02.418Z,97323.78
2019-02-20T06:27:04.374Z,97328.50
2019-02-20T06:31:06.274Z,97336.13
2019-02-20T06:35:08.561Z,97329.83
2019-02-20T06:39:10.493Z,97344.50
2019-02-20T06:43:12.401Z,97356.50
2019-02-20T06:47:14.375Z,97355.52
2019-02-20T06:51:16.316Z,97368.84
2019-02-20T06:55:18.217Z,97374.75
2019-02-20T06:59:20.133Z,97379.66
2019-02-20T07:03:22.051Z,97377.77
2019-02-20T07:08:02.815Z,97379.35
2019-02-20T07:12:39.669Z,97382.23
2019-02-20T07:17:14.948Z,97380.38
2019-02-20T07:21:33.421Z,97375.58
2019-02-20T07:26:04.331Z,97367.05
2019-02-20T07:30:10.179Z,97375.07
2019-02-20T07:34:12.100Z,97374.64
2019-02-20T07:38:14.011Z,97387.09
2019-02-20T07:42:15.947Z,97390.92
2019-02-20T07:46:17.846Z,97394.53
2019-02-20T07:50:20.732Z,97401.98
2019-02-20T07:54:22.635Z,97405.44
2019-02-20T07:58:24.878Z,97410.37
2019-02-20T08:02:26.781Z,97409.44
2019-02-20T08:06:28.720Z,97420.59
2019-02-20T08:10:31.678Z,97431.89
2019-02-20T08:14:33.588Z,97439.59
2019-02-20T08:18:35.475Z,97436.38
2019-02-20T08:22:37.432Z,97447.83
2019-02-20T08:26:39.338Z,97442.14
2019-02-20T08:30:41.252Z,97445.15
2019-02-20T08:34:43.145Z,97442.54
2019-02-20T08:38:45.034Z,97446.00
2019-02-20T08:42:46.950Z,97444.53
2019-02-20T08:46:48.841Z,97447.31
2019-02-20T08:50:50.757Z,97444.72
2019-02-20T08:54:52.662Z,97452.58
2019-02-20T08:58:54.561Z,97452.23
2019-02-20T09:02:56.461Z,97454.36
2019-02-20T09:06:58.377Z,97459.12
2019-02-20T09:11:00.283Z,97472.18
2019-02-20T09:15:02.184Z,97484.27
2019-02-20T09:19:04.137Z,97485.91
2019-02-20T09:23:06.051Z,97484.08
2019-02-20T09:27:07.955Z,97490.64
2019-02-20T09:31:09.850Z,97492.73
2019-02-20T09:35:11.893Z,97498.45
2019-02-20T09:39:35.171Z,97496.97
2019-02-20T09:43:37.061Z,97496.96
2019-02-20T09:47:38.964Z,97435.50
2019-02-20T09:51:40.872Z,97492.72
2019-02-20T09:55:51.340Z,97486.26
2019-02-20T09:59:46.379Z,97488.23
2019-02-20T10:03:48.269Z,97494.95
2019-02-20T10:07:50.178Z,97487.66
2019-02-20T10:11:52.085Z,97492.77
2019-02-20T10:15:53.981Z,97492.39
2019-02-20T10:19:55.892Z,97497.62
2019-02-20T10:23:57.857Z,97495.80
2019-02-20T10:27:59.770Z,97509.09
2019-02-20T10:32:03.310Z,97512.87
2019-02-20T10:36:05.211Z,97502.24
2019-02-20T10:40:10.124Z,97503.16
2019-02-20T10:44:12.081Z,97505.50
2019-02-20T10:48:13.992Z,97510.83
2019-02-20T10:52:15.934Z,97515.06
2019-02-20T10:56:17.832Z,97502.79
2019-02-20T11:00:24.282Z,97505.31
2019-02-20T11:04:24.972Z,97506.95
2019-02-20T11:08:26.876Z,97506.06
2019-02-20T11:12:28.781Z,97492.59
2019-02-20T11:16:30.755Z,97493.15
2019-02-20T11:20:32.673Z,97497.99
2019-02-20T11:24:34.557Z,97500.77
2019-02-20T11:28:36.459Z,97494.63
2019-02-20T11:32:38.342Z,97490.62
2019-02-20T11:36:40.557Z,97492.41
2019-02-20T11:40:42.563Z,97476.71
2019-02-20T11:44:44.451Z,97470.19
2019-02-20T11:48:46.366Z,97472.58
2019-02-20T11:52:48.270Z,97475.34
2019-02-20T11:56:50.171Z,97464.21
2019-02-20T12:00:52.073Z,97469.97
2019-02-20T12:04:53.965Z,97465.16
2019-02-20T12:08:55.882Z,97459.14
2019-02-20T12:12:57.789Z,97455.00
2019-02-20T12:16:59.698Z,97462.84
2019-02-20T12:21:01.603Z,97448.14
2019-02-20T12:25:03.557Z,97445.69
2019-02-20T12:29:05.460Z,97445.66
2019-02-20T12:33:07.484Z,97459.87
2019-02-20T12:37:09.388Z,97457.63
2019-02-20T12:41:11.281Z,97451.62
2019-02-20T12:45:13.327Z,97449.28
2019-02-20T12:49:15.295Z,97448.66
2019-02-20T12:53:17.198Z,97446.94
2019-02-20T12:57:19.100Z,97441.44
2019-02-20T13:01:20.986Z,97446.44
2019-02-20T13:05:22.888Z,97447.94
2019-02-20T13:09:25.365Z,97443.38
2019-02-20T13:13:27.297Z,97442.38
2019-02-20T13:17:30.163Z,97441.67
2019-02-20T13:21:32.066Z,97448.79
2019-02-20T13:25:33.970Z,97441.34
2019-02-20T13:29:35.873Z,97442.85
2019-02-20T13:33:37.766Z,97446.82
2019-02-20T13:37:39.684Z,97439.23
2019-02-20T13:41:41.574Z,97438.79
2019-02-20T13:45:43.478Z,97447.84
2019-02-20T13:49:45.424Z,97439.70
2019-02-20T13:53:47.361Z,97438.63
2019-02-20T13:57:49.347Z,97428.97
2019-02-20T14:01:51.258Z,97430.41
2019-02-20T14:05:53.207Z,97424.30
2019-02-20T14:09:55.101Z,97424.51
2019-02-20T14:13:56.999Z,97429.46
2019-02-20T14:17:58.904Z,97432.53
2019-02-20T14:22:00.794Z,97427.87
2019-02-20T14:26:02.707Z,97432.64
2019-02-20T14:30:10.053Z,97439.54
2019-02-20T14:34:11.960Z,97440.34
2019-02-20T14:38:13.857Z,97437.72
2019-02-20T14:42:15.763Z,97437.53
2019-02-20T14:46:17.674Z,97441.58
2019-02-20T14:50:19.560Z,97432.15
2019-02-20T14:54:21.498Z,97430.02
2019-02-20T14:58:23.368Z,97435.69
2019-02-20T15:02:26.459Z,97431.24
2019-02-20T15:06:29.323Z,97427.47
2019-02-20T15:10:31.338Z,97426.57
2019-02-20T15:14:34.592Z,97428.28
2019-02-20T15:18:36.603Z,97429.11
2019-02-20T15:22:38.496Z,97420.45
2019-02-20T15:26:40.469Z,97427.12
2019-02-20T15:30:42.400Z,97414.03
2019-02-20T15:34:44.299Z,97422.55
2019-02-20T15:38:46.201Z,97423.37
2019-02-20T15:42:48.163Z,97423.87
2019-02-20T15:46:50.074Z,97420.80
2019-02-20T15:50:53.079Z,97428.92
2019-02-20T15:54:56.126Z,97435.08
2019-02-20T15:58:58.047Z,97432.09
2019-02-20T16:02:59.961Z,97432.08
2019-02-20T16:07:01.913Z,97429.64
2019-02-20T16:11:03.796Z,97431.94
2019-02-20T16:15:09.314Z,97433.38
2019-02-20T16:19:11.321Z,97430.70
2019-02-20T16:23:13.239Z,97429.82
2019-02-20T16:27:15.137Z,97430.25
2019-02-20T16:31:17.018Z,97433.11
2019-02-20T16:35:18.934Z,97436.98
2019-02-20T16:39:21.903Z,97433.16
2019-02-20T16:43:25.028Z,97436.81
2019-02-20T16:47:26.963Z,97445.29
2019-02-20T16:51:28.849Z,97451.70
2019-02-20T16:55:30.763Z,97452.84
2019-02-20T16:59:32.668Z,97460.66
2019-02-20T17:03:34.571Z,97461.42
2019-02-20T17:07:36.442Z,97469.11
2019-02-20T17:11:38.503Z,97475.08
2019-02-20T17:15:40.412Z,97474.83
2019-02-20T17:19:42.332Z,97472.33
2019-02-20T17:23:44.231Z,97482.19
2019-02-20T17:27:49.799Z,97478.78
2019-02-20T17:31:51.983Z,97483.61
2019-02-20T17:35:53.886Z,97482.66
2019-02-20T17:39:55.802Z,97487.22
2019-02-20T17:43:57.677Z,97493.56
2019-02-20T17:47:59.596Z,97445.41
2019-02-20T17:52:01.677Z,97502.23
2019-02-20T17:56:03.843Z,97504.16
2019-02-20T18:00:12.583Z,97506.03
2019-02-20T18:04:14.621Z,97510.06
2019-02-20T18:08:16.556Z,97504.95
2019-02-20T18:12:18.469Z,97512.75
2019-02-20T18:16:20.365Z,97518.00
2019-02-20T18:20:22.263Z,97517.29
2019-02-20T18:24:26.111Z,97521.30
2019-02-20T18:28:28.168Z,97522.44
2019-02-20T18:32:30.080Z,97522.25
2019-02-20T18:36:31.973Z,97521.63
2019-02-20T18:40:34.721Z,97518.12
2019-02-20T18:44:36.792Z,97522.16
2019-02-20T18:48:38.695Z,97528.00
2019-02-20T18:52:40.585Z,97527.03
2019-02-20T18:56:42.561Z,97538.59
2019-02-20T19:00:44.536Z,97532.79
2019-02-20T19:04:46.448Z,97533.77
2019-02-20T19:08:51.640Z,97537.10
2019-02-20T19:13:32.655Z,97541.38
2019-02-20T19:18:08.452Z,97539.81
2019-02-20T19:22:23.536Z,97539.17
2019-02-20T19:26:30.019Z,97550.38
2019-02-20T19:30:52.630Z,97555.98
2019-02-20T19:35:22.918Z,97560.26
2019-02-20T19:39:35.906Z,97558.09
2019-02-20T19:43:47.714Z,97565.50
2019-02-20T19:48:16.482Z,97565.84
2019-02-20T19:52:41.110Z,97577.36
2019-02-20T19:57:02.058Z,97585.25
2019-02-20T20:01:44.789Z,97580.83
2019-02-20T20:06:25.517Z,97586.25
2019-02-20T20:10:52.001Z,97582.02
2019-02-20T20:15:18.360Z,97581.34
2019-02-20T20:19:54.816Z,97588.29
2019-02-20T20:24:37.857Z,97592.27
2019-02-20T20:29:12.971Z,97599.63
2019-02-20T20:33:50.537Z,97603.77
2019-02-20T20:38:19.604Z,97612.12
2019-02-20T20:42:40.923Z,97610.02
2019-02-20T20:46:59.505Z,97607.08
2019-02-20T20:51:26.183Z,97612.82
2019-02-20T20:55:54.787Z,97613.17
2019-02-20T21:00:27.118Z,97608.44
2019-02-20T21:04:53.319Z,97618.27
2019-02-20T21:08:59.789Z,97610.09
2019-02-20T21:13:36.505Z,97608.47
2019-02-20T21:18:11.760Z,97609.11
2019-02-20T21:22:33.302Z,97608.81
2019-02-20T21:27:01.422Z,97606.50
2019-02-20T21:31:36.922Z,97617.94
2019-02-20T21:35:46.156Z,97613.98
2019-02-20T21:39:58.246Z,97606.11
2019-02-20T21:44:31.827Z,97608.37
2019-02-20T21:48:58.874Z,97608.69
2019-02-20T21:53:40.247Z,97604.77
2019-02-20T21:58:20.335Z,97610.64
2019-02-20T22:02:30.015Z,97612.59
2019-02-20T22:07:08.778Z,97617.13
2019-02-20T22:11:32.551Z,97612.86
2019-02-20T22:16:10.325Z,97614.62
2019-02-20T22:20:46.418Z,97612.12
2019-02-20T22:25:10.957Z,97608.25
2019-02-20T22:29:36.917Z,97613.97
2019-02-20T22:33:52.328Z,97615.75
2019-02-20T22:38:19.712Z,97609.51
2019-02-20T22:42:35.092Z,97615.68
2019-02-20T22:46:44.423Z,97613.72
2019-02-20T22:51:03.081Z,97616.02
2019-02-20T22:55:24.804Z,97610.33
2019-02-20T23:00:04.879Z,97612.77
2019-02-20T23:04:24.588Z,97612.11
2019-02-20T23:08:58.594Z,97622.91
2019-02-20T23:13:10.682Z,97617.64
2019-02-20T23:17:12.559Z,97623.55
2019-02-20T23:21:15.437Z,97629.73
2019-02-20T23:25:17.326Z,97636.57
2019-02-20T23:29:19.228Z,97635.44
2019-02-20T23:33:21.125Z,97637.94
2019-02-20T23:37:22.996Z,97642.51
2019-02-20T23:41:25.514Z,97637.59
2019-02-20T23:45:27.405Z,97640.86
2019-02-20T23:49:29.299Z,97642.45
2019-02-20T23:53:31.187Z,97637.52
2019-02-20T23:57:33.073Z,97636.86
